Bosphorus Asia — 3FVK3 — position and weather

sailwx.info

Track history (hours):
 
Tides and Currents Weather Stations Pressure Air Temp Water Temp Dewpoint Dewpoint Depression Visibility Wind Speed Wind Dir Waves Ship Positions

Bosphorus Asia

Last reported at 2017-Dec-22 06:55 UTC. Time now 2018-Jan-23 02:00 UTC.
Position N 11°28' W 074°40'.
Warning: this ship's position is 31 days out of date.

Length 177 m; draft 10.5 m.

Type: Cargo ship. MMSI: 353063000.

Date/timePositionNaut miles runAvg speedWind from/ knotsBaromVisibWave heightAir tempDewpointWater temp
2017-Dec-22 06:55N 11°28' W 074°40'4 8.9
2017-Dec-22 06:30N 11°26' W 074°44'4 8.6
2017-Dec-22 05:58N 11°25' W 074°48'5 8.3
2017-Dec-22 05:25N 11°23' W 074°52'3 8.4
2017-Dec-22 05:01N 11°21' W 074°55'305 8.5
2017-Dec-20 17:06N 09°35' W 079°46'110.7
2017-Dec-20 16:59N 09°34' W 079°47'511.1
2017-Dec-20 16:31N 09°30' W 079°51'611.1
2017-Dec-20 16:01N 09°26' W 079°54'5 9.3
2017-Dec-20 15:30N 09°21' W 079°55'4 7.4
2017-Dec-20 15:01N 09°18' W 079°55'1 1.9
2017-Dec-20 14:29N 09°17' W 079°55'0 0.6
2017-Dec-20 13:59N 09°16' W 079°55'1 1.6
2017-Dec-20 13:30N 09°15' W 079°55'3 5.4
2017-Dec-20 13:00N 09°13' W 079°55'  
Track history (hours):
 
Tides and Currents Weather Stations Pressure Air Temp Water Temp Dewpoint Dewpoint Depression Visibility Wind Speed Wind Dir Waves Ship Positions

Bosphorus Asia

Last reported at 2017-Dec-22 06:55 UTC. Time now 2018-Jan-23 02:00 UTC.
Position N 11°28' W 074°40'.
Warning: this ship's position is 31 days out of date.

Length 177 m; draft 10.5 m.

Type: Cargo ship. MMSI: 353063000.

Date/timePositionNaut miles runAvg speedWind from/ knotsBaromVisibWave heightAir tempDewpointWater temp
2017-Dec-22 06:55N 11°28' W 074°40'4 8.9
2017-Dec-22 06:30N 11°26' W 074°44'4 8.6
2017-Dec-22 05:58N 11°25' W 074°48'5 8.3
2017-Dec-22 05:25N 11°23' W 074°52'3 8.4
2017-Dec-22 05:01N 11°21' W 074°55'305 8.5
2017-Dec-20 17:06N 09°35' W 079°46'110.7
2017-Dec-20 16:59N 09°34' W 079°47'511.1
2017-Dec-20 16:31N 09°30' W 079°51'611.1
2017-Dec-20 16:01N 09°26' W 079°54'5 9.3
2017-Dec-20 15:30N 09°21' W 079°55'4 7.4
2017-Dec-20 15:01N 09°18' W 079°55'1 1.9
2017-Dec-20 14:29N 09°17' W 079°55'0 0.6
2017-Dec-20 13:59N 09°16' W 079°55'1 1.6
2017-Dec-20 13:30N 09°15' W 079°55'3 5.4
2017-Dec-20 13:00N 09°13' W 079°55'  

Dump ship's entire track history